sensor_id;sensor_type;location;lat;lon;timestamp;P1;durP1;ratioP1;P2;durP2;ratioP2
52318;SDS011;38258;51.148;14.068;2023-03-01T00:00:01;6.57;;;3.03;;
52318;SDS011;38258;51.148;14.068;2023-03-01T00:02:36;6.97;;;3.45;;
52318;SDS011;38258;51.148;14.068;2023-03-01T00:05:04;2.63;;;2.33;;
52318;SDS011;38258;51.148;14.068;2023-03-01T00:07:32;2.53;;;2.33;;
52318;SDS011;38258;51.148;14.068;2023-03-01T00:10:01;6.95;;;3.50;;
52318;SDS011;38258;51.148;14.068;2023-03-01T00:12:28;8.50;;;4.53;;
52318;SDS011;38258;51.148;14.068;2023-03-01T00:14:57;3.63;;;2.80;;
52318;SDS011;38258;51.148;14.068;2023-03-01T00:17:26;4.97;;;4.07;;
52318;SDS011;38258;51.148;14.068;2023-03-01T00:19:53;4.85;;;2.50;;
52318;SDS011;38258;51.148;14.068;2023-03-01T00:22:20;4.40;;;2.78;;
52318;SDS011;38258;51.148;14.068;2023-03-01T00:24:48;3.00;;;2.55;;
52318;SDS011;38258;51.148;14.068;2023-03-01T00:27:17;5.70;;;3.03;;
52318;SDS011;38258;51.148;14.068;2023-03-01T00:29:44;5.75;;;3.90;;
52318;SDS011;38258;51.148;14.068;2023-03-01T00:32:11;5.50;;;3.63;;
52318;SDS011;38258;51.148;14.068;2023-03-01T00:34:39;3.75;;;2.70;;
52318;SDS011;38258;51.148;14.068;2023-03-01T00:37:06;3.63;;;2.90;;
52318;SDS011;38258;51.148;14.068;2023-03-01T00:39:33;4.95;;;2.72;;
52318;SDS011;38258;51.148;14.068;2023-03-01T00:42:02;3.15;;;2.42;;
52318;SDS011;38258;51.148;14.068;2023-03-01T00:44:29;3.58;;;3.28;;
52318;SDS011;38258;51.148;14.068;2023-03-01T00:46:56;4.13;;;2.75;;
52318;SDS011;38258;51.148;14.068;2023-03-01T00:49:23;2.35;;;2.17;;
52318;SDS011;38258;51.148;14.068;2023-03-01T00:51:54;6.53;;;2.30;;
52318;SDS011;38258;51.148;14.068;2023-03-01T00:54:22;6.20;;;3.40;;
52318;SDS011;38258;51.148;14.068;2023-03-01T00:56:49;3.65;;;2.80;;
52318;SDS011;38258;51.148;14.068;2023-03-01T00:59:16;5.97;;;4.20;;
52318;SDS011;38258;51.148;14.068;2023-03-01T01:01:43;2.92;;;2.58;;
52318;SDS011;38258;51.148;14.068;2023-03-01T01:04:10;4.82;;;3.45;;
52318;SDS011;38258;51.148;14.068;2023-03-01T01:06:40;3.83;;;3.00;;
52318;SDS011;38258;51.148;14.068;2023-03-01T01:09:10;3.95;;;3.08;;
52318;SDS011;38258;51.148;14.068;2023-03-01T01:11:42;4.13;;;2.63;;
52318;SDS011;38258;51.148;14.068;2023-03-01T01:14:10;3.22;;;2.92;;
52318;SDS011;38258;51.148;14.068;2023-03-01T01:16:37;5.55;;;2.70;;
52318;SDS011;38258;51.148;14.068;2023-03-01T01:19:04;5.05;;;4.43;;
52318;SDS011;38258;51.148;14.068;2023-03-01T01:21:31;6.05;;;3.42;;
52318;SDS011;38258;51.148;14.068;2023-03-01T01:23:58;6.55;;;2.80;;
52318;SDS011;38258;51.148;14.068;2023-03-01T01:26:27;4.13;;;2.95;;
52318;SDS011;38258;51.148;14.068;2023-03-01T01:28:55;3.33;;;2.55;;
52318;SDS011;38258;51.148;14.068;2023-03-01T01:31:24;2.80;;;2.47;;
52318;SDS011;38258;51.148;14.068;2023-03-01T01:33:51;3.22;;;2.30;;
52318;SDS011;38258;51.148;14.068;2023-03-01T01:36:21;3.22;;;2.28;;
52318;SDS011;38258;51.148;14.068;2023-03-01T01:38:50;3.53;;;2.15;;
52318;SDS011;38258;51.148;14.068;2023-03-01T01:41:17;4.60;;;3.22;;
52318;SDS011;38258;51.148;14.068;2023-03-01T01:43:46;3.83;;;2.53;;
52318;SDS011;38258;51.148;14.068;2023-03-01T01:46:16;4.15;;;2.88;;
52318;SDS011;38258;51.148;14.068;2023-03-01T01:48:50;3.63;;;1.80;;
52318;SDS011;38258;51.148;14.068;2023-03-01T01:51:22;5.40;;;3.00;;
52318;SDS011;38258;51.148;14.068;2023-03-01T01:53:53;5.00;;;2.35;;
52318;SDS011;38258;51.148;14.068;2023-03-01T01:56:25;2.88;;;2.58;;
52318;SDS011;38258;51.148;14.068;2023-03-01T01:58:55;2.42;;;2.05;;
52318;SDS011;38258;51.148;14.068;2023-03-01T02:01:22;2.58;;;2.35;;
52318;SDS011;38258;51.148;14.068;2023-03-01T02:03:49;5.03;;;3.58;;
52318;SDS011;38258;51.148;14.068;2023-03-01T02:06:18;6.18;;;3.08;;
52318;SDS011;38258;51.148;14.068;2023-03-01T02:08:48;3.90;;;3.03;;
52318;SDS011;38258;51.148;14.068;2023-03-01T02:11:18;4.18;;;2.92;;
52318;SDS011;38258;51.148;14.068;2023-03-01T02:13:47;3.20;;;2.17;;
52318;SDS011;38258;51.148;14.068;2023-03-01T02:16:16;5.38;;;3.80;;
52318;SDS011;38258;51.148;14.068;2023-03-01T02:18:43;3.05;;;2.42;;
52318;SDS011;38258;51.148;14.068;2023-03-01T02:21:17;6.38;;;3.38;;
52318;SDS011;38258;51.148;14.068;2023-03-01T02:23:52;9.45;;;3.83;;
52318;SDS011;38258;51.148;14.068;2023-03-01T02:26:23;5.28;;;2.97;;
52318;SDS011;38258;51.148;14.068;2023-03-01T02:29:01;7.28;;;2.95;;
52318;SDS011;38258;51.148;14.068;2023-03-01T02:31:28;2.65;;;2.45;;
52318;SDS011;38258;51.148;14.068;2023-03-01T02:34:13;3.78;;;2.13;;
52318;SDS011;38258;51.148;14.068;2023-03-01T02:36:43;3.35;;;2.58;;
52318;SDS011;38258;51.148;14.068;2023-03-01T02:39:13;5.05;;;3.00;;
52318;SDS011;38258;51.148;14.068;2023-03-01T02:41:44;2.47;;;1.88;;
52318;SDS011;38258;51.148;14.068;2023-03-01T02:44:15;5.30;;;3.72;;
52318;SDS011;38258;51.148;14.068;2023-03-01T02:46:45;3.58;;;2.80;;
52318;SDS011;38258;51.148;14.068;2023-03-01T02:49:22;3.42;;;2.72;;
52318;SDS011;38258;51.148;14.068;2023-03-01T02:55:03;4.60;;;3.05;;
52318;SDS011;38258;51.148;14.068;2023-03-01T02:57:33;3.20;;;2.15;;
52318;SDS011;38258;51.148;14.068;2023-03-01T03:00:05;2.30;;;2.10;;
52318;SDS011;38258;51.148;14.068;2023-03-01T03:02:34;3.35;;;2.67;;
52318;SDS011;38258;51.148;14.068;2023-03-01T03:05:12;2.95;;;2.33;;
52318;SDS011;38258;51.148;14.068;2023-03-01T03:07:41;2.85;;;2.63;;
52318;SDS011;38258;51.148;14.068;2023-03-01T03:10:11;2.50;;;2.30;;
52318;SDS011;38258;51.148;14.068;2023-03-01T03:12:40;4.07;;;3.67;;
52318;SDS011;38258;51.148;14.068;2023-03-01T03:15:09;4.05;;;2.22;;
52318;SDS011;38258;51.148;14.068;2023-03-01T03:17:38;9.90;;;2.35;;
52318;SDS011;38258;51.148;14.068;2023-03-01T03:20:07;3.03;;;2.72;;
52318;SDS011;38258;51.148;14.068;2023-03-01T03:22:37;4.65;;;3.20;;
52318;SDS011;38258;51.148;14.068;2023-03-01T03:25:04;6.85;;;3.05;;
52318;SDS011;38258;51.148;14.068;2023-03-01T03:27:35;2.75;;;2.55;;
52318;SDS011;38258;51.148;14.068;2023-03-01T03:30:03;6.15;;;4.25;;
52318;SDS011;38258;51.148;14.068;2023-03-01T03:32:35;3.13;;;2.35;;
52318;SDS011;38258;51.148;14.068;2023-03-01T03:35:02;3.50;;;3.10;;
52318;SDS011;38258;51.148;14.068;2023-03-01T03:37:35;2.95;;;2.50;;
52318;SDS011;38258;51.148;14.068;2023-03-01T03:40:22;6.43;;;3.58;;
52318;SDS011;38258;51.148;14.068;2023-03-01T03:42:52;3.17;;;2.92;;
52318;SDS011;38258;51.148;14.068;2023-03-01T03:45:18;5.63;;;3.58;;
52318;SDS011;38258;51.148;14.068;2023-03-01T03:47:46;2.50;;;2.30;;
52318;SDS011;38258;51.148;14.068;2023-03-01T03:50:14;3.88;;;2.55;;
52318;SDS011;38258;51.148;14.068;2023-03-01T03:52:42;5.18;;;3.55;;
52318;SDS011;38258;51.148;14.068;2023-03-01T03:55:09;4.60;;;2.13;;
52318;SDS011;38258;51.148;14.068;2023-03-01T03:57:39;2.65;;;2.10;;
52318;SDS011;38258;51.148;14.068;2023-03-01T04:00:08;2.53;;;2.20;;
52318;SDS011;38258;51.148;14.068;2023-03-01T04:02:38;4.80;;;4.25;;
52318;SDS011;38258;51.148;14.068;2023-03-01T04:05:07;3.08;;;2.33;;
52318;SDS011;38258;51.148;14.068;2023-03-01T04:07:36;4.28;;;2.55;;
52318;SDS011;38258;51.148;14.068;2023-03-01T04:10:04;5.00;;;2.83;;
52318;SDS011;38258;51.148;14.068;2023-03-01T04:12:32;3.63;;;3.20;;
52318;SDS011;38258;51.148;14.068;2023-03-01T04:15:00;4.38;;;3.28;;
52318;SDS011;38258;51.148;14.068;2023-03-01T04:17:27;2.78;;;2.35;;
52318;SDS011;38258;51.148;14.068;2023-03-01T04:19:53;3.58;;;3.28;;
52318;SDS011;38258;51.148;14.068;2023-03-01T04:22:22;5.03;;;4.22;;
52318;SDS011;38258;51.148;14.068;2023-03-01T04:24:54;4.43;;;3.20;;
52318;SDS011;38258;51.148;14.068;2023-03-01T04:27:21;8.02;;;4.60;;
52318;SDS011;38258;51.148;14.068;2023-03-01T04:29:48;3.33;;;3.03;;
52318;SDS011;38258;51.148;14.068;2023-03-01T04:32:14;5.80;;;3.42;;
52318;SDS011;38258;51.148;14.068;2023-03-01T04:34:41;5.65;;;4.75;;
52318;SDS011;38258;51.148;14.068;2023-03-01T04:37:08;6.68;;;3.38;;
52318;SDS011;38258;51.148;14.068;2023-03-01T04:39:36;6.53;;;4.28;;
52318;SDS011;38258;51.148;14.068;2023-03-01T04:42:10;6.80;;;4.32;;
52318;SDS011;38258;51.148;14.068;2023-03-01T04:44:40;4.13;;;2.67;;
52318;SDS011;38258;51.148;14.068;2023-03-01T04:47:06;4.72;;;3.45;;
52318;SDS011;38258;51.148;14.068;2023-03-01T04:49:33;3.03;;;2.58;;
52318;SDS011;38258;51.148;14.068;2023-03-01T04:52:00;3.40;;;2.05;;
52318;SDS011;38258;51.148;14.068;2023-03-01T04:54:28;7.65;;;3.80;;
52318;SDS011;38258;51.148;14.068;2023-03-01T04:56:59;3.90;;;3.33;;
52318;SDS011;38258;51.148;14.068;2023-03-01T04:59:26;9.05;;;3.30;;
52318;SDS011;38258;51.148;14.068;2023-03-01T05:01:53;2.63;;;1.60;;
52318;SDS011;38258;51.148;14.068;2023-03-01T05:04:49;5.53;;;3.05;;
52318;SDS011;38258;51.148;14.068;2023-03-01T05:07:28;4.32;;;3.65;;
52318;SDS011;38258;51.148;14.068;2023-03-01T05:09:54;2.72;;;2.42;;
52318;SDS011;38258;51.148;14.068;2023-03-01T05:12:22;5.40;;;3.17;;
52318;SDS011;38258;51.148;14.068;2023-03-01T05:14:49;4.10;;;2.25;;
52318;SDS011;38258;51.148;14.068;2023-03-01T05:17:18;3.90;;;3.47;;
52318;SDS011;38258;51.148;14.068;2023-03-01T05:19:45;10.45;;;4.50;;
52318;SDS011;38258;51.148;14.068;2023-03-01T05:22:12;4.07;;;2.88;;
52318;SDS011;38258;51.148;14.068;2023-03-01T05:24:38;6.07;;;3.47;;
52318;SDS011;38258;51.148;14.068;2023-03-01T05:27:05;4.93;;;4.45;;
52318;SDS011;38258;51.148;14.068;2023-03-01T05:29:36;3.70;;;3.38;;
52318;SDS011;38258;51.148;14.068;2023-03-01T05:32:04;3.78;;;2.92;;
52318;SDS011;38258;51.148;14.068;2023-03-01T05:34:32;4.53;;;3.47;;
52318;SDS011;38258;51.148;14.068;2023-03-01T05:37:00;3.38;;;3.08;;
52318;SDS011;38258;51.148;14.068;2023-03-01T05:39:28;4.00;;;2.88;;
52318;SDS011;38258;51.148;14.068;2023-03-01T05:41:57;9.65;;;4.97;;
52318;SDS011;38258;51.148;14.068;2023-03-01T05:44:25;4.50;;;3.67;;
52318;SDS011;38258;51.148;14.068;2023-03-01T05:46:54;5.30;;;4.60;;
52318;SDS011;38258;51.148;14.068;2023-03-01T05:49:21;2.97;;;2.60;;
52318;SDS011;38258;51.148;14.068;2023-03-01T05:51:50;11.20;;;4.60;;
52318;SDS011;38258;51.148;14.068;2023-03-01T05:54:18;5.22;;;3.78;;
52318;SDS011;38258;51.148;14.068;2023-03-01T05:56:45;5.53;;;3.42;;
52318;SDS011;38258;51.148;14.068;2023-03-01T05:59:12;6.30;;;4.57;;
52318;SDS011;38258;51.148;14.068;2023-03-01T06:01:40;5.43;;;3.22;;
52318;SDS011;38258;51.148;14.068;2023-03-01T06:04:08;5.38;;;3.58;;
52318;SDS011;38258;51.148;14.068;2023-03-01T06:06:35;4.57;;;3.30;;
52318;SDS011;38258;51.148;14.068;2023-03-01T06:09:03;11.38;;;5.20;;
52318;SDS011;38258;51.148;14.068;2023-03-01T06:11:29;5.45;;;3.90;;
52318;SDS011;38258;51.148;14.068;2023-03-01T06:13:56;6.10;;;3.60;;
52318;SDS011;38258;51.148;14.068;2023-03-01T06:16:23;3.03;;;2.72;;
52318;SDS011;38258;51.148;14.068;2023-03-01T06:18:50;7.63;;;4.25;;
52318;SDS011;38258;51.148;14.068;2023-03-01T06:21:18;7.68;;;2.97;;
52318;SDS011;38258;51.148;14.068;2023-03-01T06:23:45;2.25;;;2.10;;
52318;SDS011;38258;51.148;14.068;2023-03-01T06:26:12;2.47;;;2.25;;
52318;SDS011;38258;51.148;14.068;2023-03-01T06:28:38;2.92;;;2.72;;
52318;SDS011;38258;51.148;14.068;2023-03-01T06:31:05;3.97;;;3.60;;
52318;SDS011;38258;51.148;14.068;2023-03-01T06:33:33;4.32;;;4.00;;
52318;SDS011;38258;51.148;14.068;2023-03-01T06:36:01;10.40;;;4.40;;
52318;SDS011;38258;51.148;14.068;2023-03-01T06:38:29;5.25;;;3.33;;
52318;SDS011;38258;51.148;14.068;2023-03-01T06:40:56;5.57;;;4.13;;
52318;SDS011;38258;51.148;14.068;2023-03-01T06:43:23;9.88;;;4.30;;
52318;SDS011;38258;51.148;14.068;2023-03-01T06:45:50;3.50;;;3.22;;
52318;SDS011;38258;51.148;14.068;2023-03-01T06:48:17;5.25;;;4.05;;
52318;SDS011;38258;51.148;14.068;2023-03-01T06:50:44;7.45;;;4.40;;
52318;SDS011;38258;51.148;14.068;2023-03-01T06:53:10;13.40;;;5.30;;
52318;SDS011;38258;51.148;14.068;2023-03-01T06:55:38;7.05;;;5.18;;
52318;SDS011;38258;51.148;14.068;2023-03-01T06:58:05;5.63;;;4.75;;
52318;SDS011;38258;51.148;14.068;2023-03-01T07:00:32;8.50;;;5.25;;
52318;SDS011;38258;51.148;14.068;2023-03-01T07:02:59;14.73;;;6.45;;
52318;SDS011;38258;51.148;14.068;2023-03-01T07:05:28;9.90;;;5.20;;
52318;SDS011;38258;51.148;14.068;2023-03-01T07:07:55;20.10;;;7.28;;
52318;SDS011;38258;51.148;14.068;2023-03-01T07:10:22;12.40;;;7.63;;
52318;SDS011;38258;51.148;14.068;2023-03-01T07:12:50;11.80;;;7.30;;
52318;SDS011;38258;51.148;14.068;2023-03-01T07:15:21;9.60;;;7.03;;
52318;SDS011;38258;51.148;14.068;2023-03-01T07:17:48;16.63;;;8.60;;
52318;SDS011;38258;51.148;14.068;2023-03-01T07:20:16;18.83;;;6.38;;
52318;SDS011;38258;51.148;14.068;2023-03-01T07:22:43;17.33;;;10.10;;
52318;SDS011;38258;51.148;14.068;2023-03-01T07:25:10;12.98;;;7.90;;
52318;SDS011;38258;51.148;14.068;2023-03-01T07:27:37;13.20;;;7.65;;
52318;SDS011;38258;51.148;14.068;2023-03-01T07:30:05;15.35;;;8.52;;
52318;SDS011;38258;51.148;14.068;2023-03-01T07:32:33;11.77;;;6.50;;
52318;SDS011;38258;51.148;14.068;2023-03-01T07:35:00;17.02;;;8.82;;
52318;SDS011;38258;51.148;14.068;2023-03-01T07:37:26;14.63;;;9.15;;
52318;SDS011;38258;51.148;14.068;2023-03-01T07:39:53;13.35;;;5.82;;
52318;SDS011;38258;51.148;14.068;2023-03-01T07:42:20;9.48;;;6.43;;
52318;SDS011;38258;51.148;14.068;2023-03-01T07:44:47;9.73;;;5.80;;
52318;SDS011;38258;51.148;14.068;2023-03-01T07:47:15;12.30;;;6.70;;
52318;SDS011;38258;51.148;14.068;2023-03-01T07:49:42;12.32;;;8.43;;
52318;SDS011;38258;51.148;14.068;2023-03-01T07:52:09;10.57;;;6.25;;
52318;SDS011;38258;51.148;14.068;2023-03-01T07:54:37;16.55;;;9.27;;
52318;SDS011;38258;51.148;14.068;2023-03-01T07:57:04;11.55;;;6.90;;
52318;SDS011;38258;51.148;14.068;2023-03-01T07:59:30;17.75;;;8.43;;
52318;SDS011;38258;51.148;14.068;2023-03-01T08:01:58;12.63;;;6.95;;
52318;SDS011;38258;51.148;14.068;2023-03-01T08:04:26;21.33;;;10.18;;
52318;SDS011;38258;51.148;14.068;2023-03-01T08:06:53;15.55;;;7.47;;
52318;SDS011;38258;51.148;14.068;2023-03-01T08:09:21;17.17;;;7.05;;
52318;SDS011;38258;51.148;14.068;2023-03-01T08:11:48;12.57;;;7.30;;
52318;SDS011;38258;51.148;14.068;2023-03-01T08:14:14;17.23;;;7.35;;
52318;SDS011;38258;51.148;14.068;2023-03-01T08:16:41;17.88;;;8.07;;
52318;SDS011;38258;51.148;14.068;2023-03-01T08:19:09;18.70;;;9.88;;
52318;SDS011;38258;51.148;14.068;2023-03-01T08:21:38;16.63;;;7.95;;
52318;SDS011;38258;51.148;14.068;2023-03-01T08:24:06;14.35;;;7.60;;
52318;SDS011;38258;51.148;14.068;2023-03-01T08:26:35;9.13;;;6.32;;
52318;SDS011;38258;51.148;14.068;2023-03-01T08:29:03;15.63;;;7.45;;
52318;SDS011;38258;51.148;14.068;2023-03-01T08:31:31;20.70;;;9.02;;
52318;SDS011;38258;51.148;14.068;2023-03-01T08:34:00;18.75;;;8.77;;
52318;SDS011;38258;51.148;14.068;2023-03-01T08:36:30;10.68;;;6.55;;
52318;SDS011;38258;51.148;14.068;2023-03-01T08:38:59;15.80;;;6.00;;
52318;SDS011;38258;51.148;14.068;2023-03-01T08:41:26;14.77;;;7.40;;
52318;SDS011;38258;51.148;14.068;2023-03-01T08:43:53;14.57;;;7.07;;
52318;SDS011;38258;51.148;14.068;2023-03-01T08:46:24;9.55;;;4.45;;
52318;SDS011;38258;51.148;14.068;2023-03-01T08:48:51;15.30;;;7.32;;
52318;SDS011;38258;51.148;14.068;2023-03-01T08:51:18;18.42;;;8.85;;
52318;SDS011;38258;51.148;14.068;2023-03-01T08:53:46;15.15;;;8.43;;
52318;SDS011;38258;51.148;14.068;2023-03-01T08:56:15;15.07;;;8.07;;
52318;SDS011;38258;51.148;14.068;2023-03-01T08:58:43;11.02;;;5.53;;
52318;SDS011;38258;51.148;14.068;2023-03-01T09:01:11;16.85;;;7.85;;
52318;SDS011;38258;51.148;14.068;2023-03-01T09:03:40;15.68;;;6.53;;
52318;SDS011;38258;51.148;14.068;2023-03-01T09:06:07;18.98;;;8.98;;
52318;SDS011;38258;51.148;14.068;2023-03-01T09:08:35;21.35;;;8.77;;
52318;SDS011;38258;51.148;14.068;2023-03-01T09:11:02;15.00;;;7.20;;
52318;SDS011;38258;51.148;14.068;2023-03-01T09:13:31;16.45;;;7.43;;
52318;SDS011;38258;51.148;14.068;2023-03-01T09:15:58;17.60;;;8.48;;
52318;SDS011;38258;51.148;14.068;2023-03-01T09:18:25;14.52;;;6.47;;
52318;SDS011;38258;51.148;14.068;2023-03-01T09:20:52;17.13;;;8.55;;
52318;SDS011;38258;51.148;14.068;2023-03-01T09:23:20;16.95;;;8.27;;
52318;SDS011;38258;51.148;14.068;2023-03-01T09:25:47;19.27;;;8.75;;
52318;SDS011;38258;51.148;14.068;2023-03-01T09:28:14;18.95;;;8.63;;
52318;SDS011;38258;51.148;14.068;2023-03-01T09:30:42;17.50;;;8.20;;
52318;SDS011;38258;51.148;14.068;2023-03-01T09:33:09;18.98;;;8.38;;
52318;SDS011;38258;51.148;14.068;2023-03-01T09:35:39;15.07;;;7.82;;
52318;SDS011;38258;51.148;14.068;2023-03-01T09:38:11;16.92;;;8.70;;
52318;SDS011;38258;51.148;14.068;2023-03-01T09:40:41;13.93;;;7.43;;
52318;SDS011;38258;51.148;14.068;2023-03-01T09:43:14;16.30;;;7.38;;
52318;SDS011;38258;51.148;14.068;2023-03-01T09:45:46;19.48;;;7.53;;
52318;SDS011;38258;51.148;14.068;2023-03-01T09:48:17;14.65;;;7.68;;
52318;SDS011;38258;51.148;14.068;2023-03-01T09:50:47;15.93;;;8.02;;
52318;SDS011;38258;51.148;14.068;2023-03-01T09:53:16;16.50;;;8.10;;
52318;SDS011;38258;51.148;14.068;2023-03-01T09:55:45;18.80;;;8.25;;
52318;SDS011;38258;51.148;14.068;2023-03-01T10:01:16;17.45;;;8.82;;
52318;SDS011;38258;51.148;14.068;2023-03-01T10:04:05;14.80;;;7.78;;
52318;SDS011;38258;51.148;14.068;2023-03-01T10:06:55;16.50;;;8.38;;
52318;SDS011;38258;51.148;14.068;2023-03-01T10:09:32;18.67;;;7.72;;
52318;SDS011;38258;51.148;14.068;2023-03-01T10:12:01;16.35;;;7.93;;
52318;SDS011;38258;51.148;14.068;2023-03-01T10:14:32;15.18;;;7.75;;
52318;SDS011;38258;51.148;14.068;2023-03-01T10:17:03;16.42;;;7.20;;
52318;SDS011;38258;51.148;14.068;2023-03-01T10:19:36;18.37;;;7.93;;
52318;SDS011;38258;51.148;14.068;2023-03-01T10:22:09;13.10;;;6.32;;
52318;SDS011;38258;51.148;14.068;2023-03-01T10:24:41;13.48;;;6.43;;
52318;SDS011;38258;51.148;14.068;2023-03-01T10:27:11;13.15;;;6.78;;
52318;SDS011;38258;51.148;14.068;2023-03-01T10:32:13;9.00;;;5.50;;
52318;SDS011;38258;51.148;14.068;2023-03-01T10:34:41;14.68;;;8.70;;
52318;SDS011;38258;51.148;14.068;2023-03-01T10:37:09;14.45;;;6.50;;
52318;SDS011;38258;51.148;14.068;2023-03-01T10:39:37;16.92;;;7.30;;
52318;SDS011;38258;51.148;14.068;2023-03-01T10:42:22;20.52;;;8.15;;
52318;SDS011;38258;51.148;14.068;2023-03-01T10:44:53;20.15;;;9.18;;
52318;SDS011;38258;51.148;14.068;2023-03-01T10:47:22;18.33;;;8.13;;
52318;SDS011;38258;51.148;14.068;2023-03-01T10:49:51;14.90;;;6.57;;
52318;SDS011;38258;51.148;14.068;2023-03-01T10:52:23;16.58;;;7.53;;
52318;SDS011;38258;51.148;14.068;2023-03-01T10:54:53;15.80;;;7.55;;
52318;SDS011;38258;51.148;14.068;2023-03-01T10:57:28;19.85;;;8.20;;
52318;SDS011;38258;51.148;14.068;2023-03-01T11:00:16;12.32;;;6.32;;
52318;SDS011;38258;51.148;14.068;2023-03-01T11:02:51;14.10;;;6.85;;
52318;SDS011;38258;51.148;14.068;2023-03-01T11:05:29;18.38;;;7.18;;
52318;SDS011;38258;51.148;14.068;2023-03-01T11:07:59;15.13;;;8.13;;
52318;SDS011;38258;51.148;14.068;2023-03-01T11:10:28;19.20;;;9.55;;
52318;SDS011;38258;51.148;14.068;2023-03-01T11:13:05;16.65;;;8.07;;
52318;SDS011;38258;51.148;14.068;2023-03-01T11:15:34;17.50;;;8.07;;
52318;SDS011;38258;51.148;14.068;2023-03-01T11:18:02;5.35;;;4.03;;
52318;SDS011;38258;51.148;14.068;2023-03-01T11:20:31;18.27;;;8.65;;
52318;SDS011;38258;51.148;14.068;2023-03-01T11:23:01;18.92;;;8.77;;
52318;SDS011;38258;51.148;14.068;2023-03-01T11:25:32;20.80;;;9.27;;
52318;SDS011;38258;51.148;14.068;2023-03-01T11:28:03;20.38;;;9.93;;
52318;SDS011;38258;51.148;14.068;2023-03-01T11:30:33;20.40;;;10.25;;
52318;SDS011;38258;51.148;14.068;2023-03-01T11:33:10;23.40;;;11.17;;
52318;SDS011;38258;51.148;14.068;2023-03-01T11:35:45;24.08;;;11.32;;
52318;SDS011;38258;51.148;14.068;2023-03-01T11:38:16;13.02;;;6.95;;
52318;SDS011;38258;51.148;14.068;2023-03-01T11:40:48;19.20;;;9.10;;
52318;SDS011;38258;51.148;14.068;2023-03-01T11:43:21;18.40;;;8.35;;
52318;SDS011;38258;51.148;14.068;2023-03-01T11:46:02;13.48;;;7.68;;
52318;SDS011;38258;51.148;14.068;2023-03-01T11:49:04;20.05;;;6.82;;
52318;SDS011;38258;51.148;14.068;2023-03-01T11:51:46;20.85;;;8.15;;
52318;SDS011;38258;51.148;14.068;2023-03-01T11:54:28;16.77;;;6.85;;
52318;SDS011;38258;51.148;14.068;2023-03-01T11:57:07;9.65;;;5.95;;
52318;SDS011;38258;51.148;14.068;2023-03-01T12:06:06;11.40;;;6.55;;
52318;SDS011;38258;51.148;14.068;2023-03-01T12:08:45;14.00;;;7.07;;
52318;SDS011;38258;51.148;14.068;2023-03-01T12:11:23;15.95;;;7.13;;
52318;SDS011;38258;51.148;14.068;2023-03-01T12:14:04;10.45;;;5.30;;
52318;SDS011;38258;51.148;14.068;2023-03-01T12:19:56;14.95;;;7.30;;
52318;SDS011;38258;51.148;14.068;2023-03-01T12:22:43;18.63;;;9.07;;
52318;SDS011;38258;51.148;14.068;2023-03-01T12:25:21;15.50;;;7.25;;
52318;SDS011;38258;51.148;14.068;2023-03-01T12:28:18;19.55;;;8.70;;
52318;SDS011;38258;51.148;14.068;2023-03-01T12:34:14;18.67;;;8.57;;
52318;SDS011;38258;51.148;14.068;2023-03-01T12:37:15;20.70;;;9.27;;
52318;SDS011;38258;51.148;14.068;2023-03-01T12:39:54;14.30;;;7.38;;
52318;SDS011;38258;51.148;14.068;2023-03-01T12:42:31;19.48;;;8.38;;
52318;SDS011;38258;51.148;14.068;2023-03-01T12:45:20;18.25;;;8.90;;
52318;SDS011;38258;51.148;14.068;2023-03-01T12:48:06;14.77;;;7.50;;
52318;SDS011;38258;51.148;14.068;2023-03-01T12:50:42;20.13;;;9.05;;
52318;SDS011;38258;51.148;14.068;2023-03-01T12:53:16;18.25;;;7.15;;
52318;SDS011;38258;51.148;14.068;2023-03-01T12:55:51;18.08;;;7.82;;
52318;SDS011;38258;51.148;14.068;2023-03-01T12:58:21;14.50;;;6.60;;
52318;SDS011;38258;51.148;14.068;2023-03-01T13:01:02;19.20;;;8.52;;
52318;SDS011;38258;51.148;14.068;2023-03-01T13:03:44;18.95;;;8.57;;
52318;SDS011;38258;51.148;14.068;2023-03-01T13:06:25;16.80;;;9.25;;
52318;SDS011;38258;51.148;14.068;2023-03-01T13:09:04;20.92;;;8.95;;
52318;SDS011;38258;51.148;14.068;2023-03-01T13:11:42;14.45;;;7.32;;
52318;SDS011;38258;51.148;14.068;2023-03-01T13:17:01;15.45;;;8.07;;
52318;SDS011;38258;51.148;14.068;2023-03-01T13:19:28;16.95;;;7.50;;
52318;SDS011;38258;51.148;14.068;2023-03-01T13:21:57;12.80;;;5.80;;
52318;SDS011;38258;51.148;14.068;2023-03-01T13:24:28;19.10;;;9.30;;
52318;SDS011;38258;51.148;14.068;2023-03-01T13:27:18;22.23;;;9.02;;
52318;SDS011;38258;51.148;14.068;2023-03-01T13:29:50;13.80;;;6.88;;
52318;SDS011;38258;51.148;14.068;2023-03-01T13:32:19;20.83;;;9.43;;
52318;SDS011;38258;51.148;14.068;2023-03-01T13:34:48;15.27;;;7.75;;
52318;SDS011;38258;51.148;14.068;2023-03-01T13:37:26;17.08;;;8.25;;
52318;SDS011;38258;51.148;14.068;2023-03-01T13:39:59;13.82;;;6.20;;
52318;SDS011;38258;51.148;14.068;2023-03-01T13:42:33;20.00;;;8.43;;
52318;SDS011;38258;51.148;14.068;2023-03-01T13:45:04;10.60;;;5.00;;
52318;SDS011;38258;51.148;14.068;2023-03-01T13:47:41;20.13;;;8.10;;
52318;SDS011;38258;51.148;14.068;2023-03-01T13:50:16;10.77;;;6.78;;
52318;SDS011;38258;51.148;14.068;2023-03-01T13:52:47;19.05;;;9.40;;
52318;SDS011;38258;51.148;14.068;2023-03-01T13:55:19;17.33;;;8.75;;
52318;SDS011;38258;51.148;14.068;2023-03-01T13:57:53;16.40;;;8.07;;
52318;SDS011;38258;51.148;14.068;2023-03-01T14:03:12;13.40;;;7.10;;
52318;SDS011;38258;51.148;14.068;2023-03-01T14:05:41;20.75;;;8.45;;
52318;SDS011;38258;51.148;14.068;2023-03-01T14:08:19;19.00;;;8.90;;
52318;SDS011;38258;51.148;14.068;2023-03-01T14:10:52;14.63;;;7.57;;
52318;SDS011;38258;51.148;14.068;2023-03-01T14:13:31;13.15;;;6.57;;
52318;SDS011;38258;51.148;14.068;2023-03-01T14:16:15;19.48;;;8.23;;
52318;SDS011;38258;51.148;14.068;2023-03-01T14:18:55;13.27;;;6.70;;
52318;SDS011;38258;51.148;14.068;2023-03-01T14:21:33;16.48;;;6.97;;
52318;SDS011;38258;51.148;14.068;2023-03-01T14:24:01;14.13;;;6.78;;
52318;SDS011;38258;51.148;14.068;2023-03-01T14:26:29;13.55;;;7.45;;
52318;SDS011;38258;51.148;14.068;2023-03-01T14:29:01;16.67;;;7.55;;
52318;SDS011;38258;51.148;14.068;2023-03-01T14:31:32;15.85;;;6.97;;
52318;SDS011;38258;51.148;14.068;2023-03-01T14:36:29;14.38;;;6.15;;
52318;SDS011;38258;51.148;14.068;2023-03-01T14:38:57;14.93;;;6.57;;
52318;SDS011;38258;51.148;14.068;2023-03-01T14:41:30;13.25;;;6.97;;
52318;SDS011;38258;51.148;14.068;2023-03-01T14:44:03;18.42;;;6.65;;
52318;SDS011;38258;51.148;14.068;2023-03-01T14:46:34;11.80;;;6.22;;
52318;SDS011;38258;51.148;14.068;2023-03-01T14:49:03;17.77;;;7.00;;
52318;SDS011;38258;51.148;14.068;2023-03-01T14:51:35;13.38;;;6.20;;
52318;SDS011;38258;51.148;14.068;2023-03-01T14:54:03;14.20;;;7.10;;
52318;SDS011;38258;51.148;14.068;2023-03-01T14:56:45;14.30;;;6.97;;
52318;SDS011;38258;51.148;14.068;2023-03-01T14:59:14;15.18;;;6.78;;
52318;SDS011;38258;51.148;14.068;2023-03-01T15:01:41;14.82;;;6.90;;
52318;SDS011;38258;51.148;14.068;2023-03-01T15:04:10;15.00;;;6.93;;
52318;SDS011;38258;51.148;14.068;2023-03-01T15:06:39;13.68;;;6.25;;
52318;SDS011;38258;51.148;14.068;2023-03-01T15:09:06;14.18;;;6.03;;
52318;SDS011;38258;51.148;14.068;2023-03-01T15:11:39;13.57;;;5.85;;
52318;SDS011;38258;51.148;14.068;2023-03-01T15:17:15;12.07;;;5.28;;
52318;SDS011;38258;51.148;14.068;2023-03-01T15:19:50;8.27;;;5.18;;